createdAt,value
2019-03-29T00:01:47.436Z,9.78
2019-03-29T00:04:21.432Z,9.74
2019-03-29T00:06:55.446Z,9.72
2019-03-29T00:09:29.463Z,9.68
2019-03-29T00:12:04.830Z,9.68
2019-03-29T00:14:39.147Z,9.61
2019-03-29T00:17:13.190Z,9.62
2019-03-29T00:19:47.178Z,9.55
2019-03-29T00:22:26.768Z,9.58
2019-03-29T00:25:07.093Z,9.59
2019-03-29T00:27:42.602Z,9.55
2019-03-29T00:30:17.808Z,9.53
2019-03-29T00:32:53.584Z,9.55
2019-03-29T00:35:27.567Z,9.58
2019-03-29T00:38:01.660Z,9.59
2019-03-29T00:40:35.980Z,9.60
2019-03-29T00:43:11.399Z,9.62
2019-03-29T00:45:46.052Z,9.61
2019-03-29T00:48:21.977Z,9.61
2019-03-29T00:50:58.328Z,9.53
2019-03-29T00:53:33.013Z,9.53
2019-03-29T00:56:07.033Z,9.47
2019-03-29T00:58:41.076Z,9.45
2019-03-29T01:01:16.097Z,9.44
2019-03-29T01:03:51.584Z,9.42
2019-03-29T01:06:25.698Z,9.44
2019-03-29T01:09:01.256Z,9.47
2019-03-29T01:11:38.070Z,9.47
2019-03-29T01:14:12.226Z,9.47
2019-03-29T01:16:46.223Z,9.48
2019-03-29T01:19:20.263Z,9.46
2019-03-29T01:21:54.260Z,9.46
2019-03-29T01:24:28.382Z,9.46
2019-03-29T01:27:07.534Z,9.46
2019-03-29T01:29:46.457Z,9.46
2019-03-29T01:32:25.862Z,9.42
2019-03-29T01:35:05.771Z,9.44
2019-03-29T01:37:39.774Z,9.48
2019-03-29T01:40:13.858Z,9.48
2019-03-29T01:42:47.972Z,9.48
2019-03-29T01:45:22.032Z,9.49
2019-03-29T01:47:56.128Z,9.48
2019-03-29T01:50:30.409Z,9.47
2019-03-29T01:53:04.421Z,9.48
2019-03-29T01:55:38.463Z,9.45
2019-03-29T01:58:12.602Z,9.48
2019-03-29T02:00:46.728Z,9.44
2019-03-29T02:03:20.897Z,9.43
2019-03-29T02:05:55.045Z,9.44
2019-03-29T02:08:35.587Z,9.48
2019-03-29T02:11:05.452Z,9.49
2019-03-29T02:13:39.393Z,9.50
2019-03-29T02:16:14.459Z,9.50
2019-03-29T02:18:48.523Z,9.45
2019-03-29T02:21:22.874Z,9.41
2019-03-29T02:23:57.091Z,9.41
2019-03-29T02:26:31.395Z,9.43
2019-03-29T02:29:05.385Z,9.43
2019-03-29T02:31:42.167Z,9.42
2019-03-29T02:34:16.069Z,9.42
2019-03-29T02:36:50.412Z,9.41
2019-03-29T02:39:24.447Z,9.37
2019-03-29T02:41:58.632Z,9.34
2019-03-29T02:44:34.845Z,9.30
2019-03-29T02:47:08.398Z,9.31
2019-03-29T02:49:43.487Z,9.34
2019-03-29T02:52:17.920Z,9.34
2019-03-29T02:54:51.916Z,9.34
2019-03-29T02:57:25.966Z,9.35
2019-03-29T03:00:01.091Z,9.35
2019-03-29T03:02:35.472Z,9.31
2019-03-29T03:05:10.051Z,9.23
2019-03-29T03:07:44.095Z,9.25
2019-03-29T03:10:18.184Z,9.20
2019-03-29T03:12:52.174Z,9.21
2019-03-29T03:15:26.164Z,9.20
2019-03-29T03:18:00.340Z,9.19
2019-03-29T03:20:34.326Z,9.17
2019-03-29T03:23:08.348Z,9.20
2019-03-29T03:25:42.523Z,9.26
2019-03-29T03:28:16.551Z,9.25
2019-03-29T03:30:50.684Z,9.19
2019-03-29T03:33:24.796Z,9.20
2019-03-29T03:35:58.796Z,9.19
2019-03-29T03:38:33.029Z,9.21
2019-03-29T03:41:07.669Z,9.21
2019-03-29T03:43:42.806Z,9.21
2019-03-29T03:46:16.913Z,9.23
2019-03-29T03:48:50.983Z,9.23
2019-03-29T03:51:25.117Z,9.27
2019-03-29T03:53:59.775Z,9.25
2019-03-29T03:56:33.783Z,9.26
2019-03-29T03:59:07.811Z,9.22
2019-03-29T04:01:41.744Z,9.18
2019-03-29T04:04:15.778Z,9.20
2019-03-29T04:06:49.820Z,9.20
2019-03-29T04:09:24.882Z,9.20
2019-03-29T04:11:58.942Z,9.18
2019-03-29T04:14:33.010Z,9.17
2019-03-29T04:17:08.013Z,9.18
2019-03-29T04:19:42.102Z,9.18
2019-03-29T04:22:16.103Z,9.18
2019-03-29T04:24:50.281Z,9.18
2019-03-29T04:27:24.279Z,9.15
2019-03-29T04:29:58.327Z,9.15
2019-03-29T04:32:32.423Z,9.14
2019-03-29T04:35:06.436Z,9.15
2019-03-29T04:37:40.662Z,9.14
2019-03-29T04:40:14.679Z,9.16
2019-03-29T04:42:48.741Z,9.16
2019-03-29T04:45:22.779Z,9.16
2019-03-29T04:47:56.769Z,9.13
2019-03-29T04:50:30.776Z,9.12
2019-03-29T04:53:04.825Z,9.13
2019-03-29T04:55:38.993Z,9.14
2019-03-29T04:58:12.998Z,9.16
2019-03-29T05:00:47.370Z,9.13
2019-03-29T05:03:21.568Z,9.12
2019-03-29T05:05:56.035Z,9.14
2019-03-29T05:08:30.173Z,9.17
2019-03-29T05:11:04.345Z,9.17
2019-03-29T05:13:40.290Z,9.18
2019-03-29T05:16:14.430Z,9.17
2019-03-29T05:18:48.626Z,9.17
2019-03-29T05:21:22.662Z,9.19
2019-03-29T05:23:56.761Z,9.21
2019-03-29T05:26:30.920Z,9.23
2019-03-29T05:29:04.999Z,9.22
2019-03-29T05:31:39.136Z,9.20
2019-03-29T05:34:20.418Z,9.24
2019-03-29T05:36:58.545Z,9.24
2019-03-29T05:39:32.839Z,9.23
2019-03-29T05:42:06.981Z,9.26
2019-03-29T05:44:41.140Z,9.28
2019-03-29T05:47:15.195Z,9.29
2019-03-29T05:49:49.350Z,9.29
2019-03-29T05:52:23.552Z,9.31
2019-03-29T05:54:57.606Z,9.25
2019-03-29T05:57:32.896Z,9.28
2019-03-29T06:00:07.749Z,9.32
2019-03-29T06:02:42.046Z,9.33
2019-03-29T06:05:18.660Z,9.36
2019-03-29T06:09:14.765Z,9.37
2019-03-29T06:12:06.699Z,9.38
2019-03-29T06:14:41.866Z,9.47
2019-03-29T06:17:15.927Z,9.50
2019-03-29T06:19:50.130Z,9.49
2019-03-29T06:22:53.389Z,9.49
2019-03-29T06:25:32.966Z,9.51
2019-03-29T06:28:07.354Z,9.58
2019-03-29T06:30:41.368Z,9.62
2019-03-29T06:33:16.589Z,9.71
2019-03-29T06:35:50.676Z,9.79
2019-03-29T06:38:25.069Z,9.78
2019-03-29T06:41:03.210Z,9.87
2019-03-29T06:43:35.736Z,9.98
2019-03-29T06:46:10.850Z,10.07
2019-03-29T06:48:44.990Z,10.29
2019-03-29T06:51:19.456Z,10.39
2019-03-29T06:53:53.668Z,10.85
2019-03-29T06:56:28.072Z,10.83
2019-03-29T06:59:02.106Z,10.83
2019-03-29T07:01:37.286Z,10.97
2019-03-29T07:04:11.957Z,10.97
2019-03-29T07:06:46.100Z,10.97
2019-03-29T07:09:20.241Z,10.94
2019-03-29T07:11:54.575Z,10.68
2019-03-29T07:14:28.639Z,10.79
2019-03-29T07:17:04.055Z,10.76
2019-03-29T07:19:38.326Z,10.82
2019-03-29T07:22:12.503Z,10.92
2019-03-29T07:24:46.565Z,10.92
2019-03-29T07:27:20.743Z,10.97
2019-03-29T07:29:55.270Z,11.00
2019-03-29T07:32:37.416Z,10.99
2019-03-29T07:35:09.971Z,11.10
2019-03-29T07:37:53.044Z,11.23
2019-03-29T07:40:35.207Z,11.11
2019-03-29T07:43:09.395Z,11.05
2019-03-29T07:46:01.723Z,11.04
2019-03-29T07:48:35.850Z,11.07
2019-03-29T07:51:10.017Z,11.00
2019-03-29T07:53:45.383Z,10.97
2019-03-29T07:56:21.755Z,10.97
2019-03-29T07:59:04.635Z,11.04
2019-03-29T08:01:38.654Z,11.08
2019-03-29T08:07:37.000Z,11.03
2019-03-29T08:10:27.537Z,10.94
2019-03-29T08:13:01.574Z,10.90
2019-03-29T08:15:35.664Z,10.87
2019-03-29T08:18:13.997Z,10.97
2019-03-29T08:20:49.881Z,11.00
2019-03-29T08:23:28.510Z,11.05
2019-03-29T08:26:00.902Z,11.04
2019-03-29T17:19:41.911Z,12.41
2019-03-29T17:22:20.552Z,12.38
2019-03-29T17:24:57.466Z,12.35
2019-03-29T17:27:35.180Z,12.35
2019-03-29T17:30:17.025Z,12.33
2019-03-29T17:32:56.612Z,12.34
2019-03-29T17:35:34.101Z,12.31
2019-03-29T17:42:00.092Z,12.23
2019-03-29T17:44:35.238Z,12.21
2019-03-29T17:47:09.319Z,12.21
2019-03-29T17:49:43.392Z,12.15
2019-03-29T17:52:17.550Z,12.15
2019-03-29T17:54:51.527Z,12.13
2019-03-29T17:57:25.656Z,12.11
2019-03-29T17:59:59.774Z,12.13
2019-03-29T18:02:34.030Z,12.08
2019-03-29T18:05:08.616Z,12.05
2019-03-29T18:07:43.248Z,12.03
2019-03-29T18:10:17.390Z,12.03
2019-03-29T18:12:53.086Z,12.01
2019-03-29T18:15:27.181Z,11.98
2019-03-29T18:18:01.383Z,11.95
2019-03-29T18:20:35.496Z,11.94
2019-03-29T18:23:09.510Z,11.91
2019-03-29T18:25:44.485Z,11.93
2019-03-29T18:28:19.196Z,11.99
2019-03-29T18:30:53.554Z,11.95
2019-03-29T18:33:27.676Z,11.88
2019-03-29T18:36:01.766Z,11.89
2019-03-29T18:38:36.837Z,11.87
2019-03-29T18:41:10.718Z,11.84
2019-03-29T18:43:44.915Z,11.81
2019-03-29T18:46:19.085Z,11.78
2019-03-29T18:48:53.119Z,11.78
2019-03-29T18:51:27.059Z,11.77
2019-03-29T18:54:00.932Z,11.73
2019-03-29T18:56:36.595Z,11.72
2019-03-29T18:59:13.641Z,11.71
2019-03-29T19:01:47.619Z,11.70
2019-03-29T19:04:21.607Z,11.71
2019-03-29T19:06:55.669Z,11.70
2019-03-29T19:09:31.696Z,11.70
2019-03-29T19:12:05.140Z,11.68
2019-03-29T19:14:41.608Z,11.77
2019-03-29T19:17:14.999Z,11.74
2019-03-29T19:19:48.967Z,11.73
2019-03-29T19:22:22.861Z,11.71
2019-03-29T19:24:56.718Z,11.69
2019-03-29T19:27:31.660Z,11.65
2019-03-29T19:30:05.642Z,11.62
2019-03-29T19:32:39.844Z,11.59
2019-03-29T19:35:13.764Z,11.61
2019-03-29T19:37:47.673Z,11.60
2019-03-29T19:40:28.552Z,11.60
2019-03-29T19:43:02.619Z,11.57
2019-03-29T19:45:36.553Z,11.57
2019-03-29T19:48:11.097Z,11.56
2019-03-29T19:50:45.577Z,11.55
2019-03-29T19:53:20.344Z,11.54
2019-03-29T19:55:54.387Z,11.49
2019-03-29T19:58:28.425Z,11.47
2019-03-29T20:01:02.462Z,11.48
2019-03-29T20:03:36.708Z,11.49
2019-03-29T20:06:10.853Z,11.44
2019-03-29T20:08:44.891Z,11.44
2019-03-29T20:11:18.924Z,11.42
2019-03-29T20:13:54.444Z,11.42
2019-03-29T20:16:29.657Z,11.38
2019-03-29T20:19:05.351Z,11.35
2019-03-29T20:21:40.522Z,11.30
2019-03-29T20:24:16.586Z,11.29
2019-03-29T20:26:54.428Z,11.28
2019-03-29T20:29:28.659Z,11.26
2019-03-29T20:32:02.838Z,11.25
2019-03-29T20:34:36.904Z,11.21
2019-03-29T20:37:11.008Z,11.21
2019-03-29T20:39:45.033Z,11.18
2019-03-29T20:42:19.066Z,11.17
2019-03-29T20:44:53.767Z,11.16
2019-03-29T20:47:41.047Z,11.17
2019-03-29T20:50:03.340Z,11.15
2019-03-29T20:52:38.331Z,11.15
2019-03-29T20:55:12.190Z,11.16
2019-03-29T20:57:46.740Z,11.15
2019-03-29T21:00:21.465Z,11.14
2019-03-29T21:02:55.451Z,11.11
2019-03-29T21:05:29.512Z,11.11
2019-03-29T21:08:03.670Z,11.07
2019-03-29T21:10:37.702Z,11.06
2019-03-29T21:13:11.789Z,11.07
2019-03-29T21:15:45.866Z,11.06
2019-03-29T21:18:20.611Z,11.01
2019-03-29T21:20:55.278Z,10.99
2019-03-29T21:23:29.337Z,11.00
2019-03-29T21:26:03.272Z,10.98
2019-03-29T21:28:38.362Z,10.95
2019-03-29T21:31:12.698Z,10.92
2019-03-29T21:33:46.734Z,10.90
2019-03-29T21:36:21.726Z,10.88
2019-03-29T21:38:55.747Z,10.87
2019-03-29T21:41:29.789Z,10.85
2019-03-29T21:44:03.720Z,10.87
2019-03-29T21:46:38.163Z,10.82
2019-03-29T21:49:11.895Z,10.86
2019-03-29T21:51:45.805Z,10.85
2019-03-29T21:54:19.532Z,10.84
2019-03-29T21:56:53.349Z,10.83
2019-03-29T21:59:27.190Z,10.80
2019-03-29T22:02:01.059Z,10.83
2019-03-29T22:04:34.894Z,10.83
2019-03-29T22:07:08.728Z,10.80
2019-03-29T22:09:42.537Z,10.78
2019-03-29T22:12:16.309Z,10.77
2019-03-29T22:14:50.162Z,10.76
2019-03-29T22:17:24.410Z,10.75
2019-03-29T22:19:58.206Z,10.74
2019-03-29T22:22:32.036Z,10.69
2019-03-29T22:25:06.301Z,10.69
2019-03-29T22:27:40.037Z,10.66
2019-03-29T22:30:14.167Z,10.63
2019-03-29T22:32:48.179Z,10.58
2019-03-29T22:35:21.990Z,10.51
2019-03-29T22:37:55.727Z,10.44
2019-03-29T22:40:29.551Z,10.39
2019-03-29T22:43:03.380Z,10.39
2019-03-29T22:45:37.189Z,10.38
2019-03-29T22:48:11.057Z,10.37
2019-03-29T22:50:44.902Z,10.32
2019-03-29T22:53:18.722Z,10.27
2019-03-29T22:55:52.534Z,10.26
2019-03-29T22:58:28.511Z,10.20
2019-03-29T23:01:01.977Z,10.14
2019-03-29T23:03:35.806Z,10.09
2019-03-29T23:06:09.716Z,10.04
2019-03-29T23:08:43.535Z,9.97
2019-03-29T23:11:17.381Z,9.83
2019-03-29T23:13:51.183Z,9.74
2019-03-29T23:16:25.007Z,9.64
2019-03-29T23:19:06.362Z,9.59
2019-03-29T23:21:34.318Z,9.56
2019-03-29T23:24:08.266Z,9.50
2019-03-29T23:26:42.048Z,9.44
2019-03-29T23:29:15.924Z,9.47
2019-03-29T23:31:49.810Z,9.44
2019-03-29T23:34:23.627Z,9.40
2019-03-29T23:36:58.638Z,9.38
2019-03-29T23:39:32.518Z,9.31
2019-03-29T23:42:06.404Z,9.24
2019-03-29T23:44:40.237Z,9.11
2019-03-29T23:47:14.170Z,9.04
2019-03-29T23:49:48.102Z,8.97
2019-03-29T23:52:21.881Z,8.87
2019-03-29T23:54:55.709Z,8.80
2019-03-29T23:57:29.508Z,8.76
